sensor_id;sensor_type;location;lat;lon;timestamp;P1;durP1;ratioP1;P2;durP2;ratioP2
4389;SDS011;2209;48.982;8.406;2022-07-23T00:01:58;10.80;;;9.80;;
4389;SDS011;2209;48.982;8.406;2022-07-23T00:04:20;10.77;;;9.77;;
4389;SDS011;2209;48.982;8.406;2022-07-23T00:06:42;11.23;;;10.10;;
4389;SDS011;2209;48.982;8.406;2022-07-23T00:09:06;10.80;;;9.80;;
4389;SDS011;2209;48.982;8.406;2022-07-23T00:11:28;10.03;;;9.03;;
4389;SDS011;2209;48.982;8.406;2022-07-23T00:13:50;10.80;;;9.90;;
4389;SDS011;2209;48.982;8.406;2022-07-23T00:16:13;10.83;;;10.03;;
4389;SDS011;2209;48.982;8.406;2022-07-23T00:18:35;13.80;;;10.67;;
4389;SDS011;2209;48.982;8.406;2022-07-23T00:20:58;10.97;;;9.97;;
4389;SDS011;2209;48.982;8.406;2022-07-23T00:23:20;10.37;;;9.47;;
4389;SDS011;2209;48.982;8.406;2022-07-23T00:25:43;11.90;;;10.80;;
4389;SDS011;2209;48.982;8.406;2022-07-23T00:28:06;10.33;;;9.50;;
4389;SDS011;2209;48.982;8.406;2022-07-23T00:30:29;12.60;;;11.30;;
4389;SDS011;2209;48.982;8.406;2022-07-23T00:32:53;9.60;;;8.77;;
4389;SDS011;2209;48.982;8.406;2022-07-23T00:35:18;9.83;;;9.03;;
4389;SDS011;2209;48.982;8.406;2022-07-23T00:37:41;11.03;;;8.80;;
4389;SDS011;2209;48.982;8.406;2022-07-23T00:40:04;9.57;;;8.77;;
4389;SDS011;2209;48.982;8.406;2022-07-23T00:42:28;9.47;;;8.47;;
4389;SDS011;2209;48.982;8.406;2022-07-23T00:44:53;10.10;;;9.20;;
4389;SDS011;2209;48.982;8.406;2022-07-23T00:47:15;8.80;;;7.73;;
4389;SDS011;2209;48.982;8.406;2022-07-23T00:49:37;9.00;;;8.30;;
4389;SDS011;2209;48.982;8.406;2022-07-23T00:52:00;10.23;;;8.30;;
4389;SDS011;2209;48.982;8.406;2022-07-23T00:54:26;8.83;;;8.03;;
4389;SDS011;2209;48.982;8.406;2022-07-23T00:56:48;8.33;;;7.53;;
4389;SDS011;2209;48.982;8.406;2022-07-23T00:59:13;8.20;;;7.50;;
4389;SDS011;2209;48.982;8.406;2022-07-23T01:01:35;8.90;;;8.10;;
4389;SDS011;2209;48.982;8.406;2022-07-23T01:03:57;8.87;;;7.97;;
4389;SDS011;2209;48.982;8.406;2022-07-23T01:06:19;8.50;;;7.80;;
4389;SDS011;2209;48.982;8.406;2022-07-23T01:08:41;9.17;;;8.27;;
4389;SDS011;2209;48.982;8.406;2022-07-23T01:11:04;8.10;;;7.50;;
4389;SDS011;2209;48.982;8.406;2022-07-23T01:13:26;8.17;;;7.47;;
4389;SDS011;2209;48.982;8.406;2022-07-23T01:15:50;12.20;;;7.77;;
4389;SDS011;2209;48.982;8.406;2022-07-23T01:18:12;8.20;;;7.60;;
4389;SDS011;2209;48.982;8.406;2022-07-23T01:20:34;7.73;;;7.00;;
4389;SDS011;2209;48.982;8.406;2022-07-23T01:22:58;8.37;;;7.50;;
4389;SDS011;2209;48.982;8.406;2022-07-23T01:25:20;8.50;;;7.80;;
4389;SDS011;2209;48.982;8.406;2022-07-23T01:27:43;8.13;;;7.20;;
4389;SDS011;2209;48.982;8.406;2022-07-23T01:30:06;8.13;;;7.43;;
4389;SDS011;2209;48.982;8.406;2022-07-23T01:32:29;8.10;;;7.30;;
4389;SDS011;2209;48.982;8.406;2022-07-23T01:34:51;8.73;;;7.90;;
4389;SDS011;2209;48.982;8.406;2022-07-23T01:37:13;6.63;;;6.03;;
4389;SDS011;2209;48.982;8.406;2022-07-23T01:39:36;6.80;;;6.27;;
4389;SDS011;2209;48.982;8.406;2022-07-23T01:41:59;7.50;;;6.77;;
4389;SDS011;2209;48.982;8.406;2022-07-23T01:44:21;9.30;;;6.80;;
4389;SDS011;2209;48.982;8.406;2022-07-23T01:46:44;7.20;;;6.57;;
4389;SDS011;2209;48.982;8.406;2022-07-23T01:49:06;6.70;;;6.20;;
4389;SDS011;2209;48.982;8.406;2022-07-23T01:51:28;6.60;;;6.10;;
4389;SDS011;2209;48.982;8.406;2022-07-23T01:53:50;7.23;;;6.53;;
4389;SDS011;2209;48.982;8.406;2022-07-23T01:56:14;7.70;;;6.43;;
4389;SDS011;2209;48.982;8.406;2022-07-23T01:58:36;7.03;;;6.43;;
4389;SDS011;2209;48.982;8.406;2022-07-23T02:00:58;6.60;;;6.10;;
4389;SDS011;2209;48.982;8.406;2022-07-23T02:03:21;6.70;;;6.20;;
4389;SDS011;2209;48.982;8.406;2022-07-23T02:05:43;12.67;;;7.23;;
4389;SDS011;2209;48.982;8.406;2022-07-23T02:08:05;7.87;;;7.07;;
4389;SDS011;2209;48.982;8.406;2022-07-23T02:10:28;7.47;;;6.63;;
4389;SDS011;2209;48.982;8.406;2022-07-23T02:12:51;6.97;;;6.47;;
4389;SDS011;2209;48.982;8.406;2022-07-23T02:15:13;7.40;;;6.63;;
4389;SDS011;2209;48.982;8.406;2022-07-23T02:17:36;7.30;;;6.70;;
4389;SDS011;2209;48.982;8.406;2022-07-23T02:19:58;6.80;;;6.30;;
4389;SDS011;2209;48.982;8.406;2022-07-23T02:22:20;6.10;;;5.70;;
4389;SDS011;2209;48.982;8.406;2022-07-23T02:24:42;6.87;;;6.27;;
4389;SDS011;2209;48.982;8.406;2022-07-23T02:27:05;6.97;;;6.47;;
4389;SDS011;2209;48.982;8.406;2022-07-23T02:29:28;7.07;;;6.43;;
4389;SDS011;2209;48.982;8.406;2022-07-23T02:31:50;6.90;;;6.30;;
4389;SDS011;2209;48.982;8.406;2022-07-23T02:34:12;6.47;;;5.97;;
4389;SDS011;2209;48.982;8.406;2022-07-23T02:36:35;6.50;;;5.83;;
4389;SDS011;2209;48.982;8.406;2022-07-23T02:38:57;7.03;;;6.43;;
4389;SDS011;2209;48.982;8.406;2022-07-23T02:41:19;6.63;;;6.07;;
4389;SDS011;2209;48.982;8.406;2022-07-23T02:43:41;7.20;;;6.60;;
4389;SDS011;2209;48.982;8.406;2022-07-23T02:46:05;7.00;;;6.40;;
4389;SDS011;2209;48.982;8.406;2022-07-23T02:48:27;6.30;;;5.80;;
4389;SDS011;2209;48.982;8.406;2022-07-23T02:50:49;6.73;;;6.13;;
4389;SDS011;2209;48.982;8.406;2022-07-23T02:53:12;8.00;;;6.10;;
4389;SDS011;2209;48.982;8.406;2022-07-23T02:55:35;6.73;;;6.13;;
4389;SDS011;2209;48.982;8.406;2022-07-23T02:57:57;6.20;;;5.70;;
4389;SDS011;2209;48.982;8.406;2022-07-23T03:00:19;6.70;;;6.10;;
4389;SDS011;2209;48.982;8.406;2022-07-23T03:02:42;6.27;;;5.77;;
4389;SDS011;2209;48.982;8.406;2022-07-23T03:05:05;7.33;;;6.60;;
4389;SDS011;2209;48.982;8.406;2022-07-23T03:07:27;6.80;;;6.30;;
4389;SDS011;2209;48.982;8.406;2022-07-23T03:09:50;7.43;;;6.60;;
4389;SDS011;2209;48.982;8.406;2022-07-23T03:12:12;5.30;;;4.90;;
4389;SDS011;2209;48.982;8.406;2022-07-23T03:14:34;6.80;;;6.13;;
4389;SDS011;2209;48.982;8.406;2022-07-23T03:16:56;7.23;;;5.83;;
4389;SDS011;2209;48.982;8.406;2022-07-23T03:19:21;6.67;;;6.07;;
4389;SDS011;2209;48.982;8.406;2022-07-23T03:21:43;6.53;;;6.07;;
4389;SDS011;2209;48.982;8.406;2022-07-23T03:24:06;7.20;;;6.50;;
4389;SDS011;2209;48.982;8.406;2022-07-23T03:26:28;6.90;;;6.30;;
4389;SDS011;2209;48.982;8.406;2022-07-23T03:28:51;7.70;;;7.00;;
4389;SDS011;2209;48.982;8.406;2022-07-23T03:31:13;7.77;;;6.87;;
4389;SDS011;2209;48.982;8.406;2022-07-23T03:33:35;8.17;;;7.57;;
4389;SDS011;2209;48.982;8.406;2022-07-23T03:35:58;8.53;;;7.73;;
4389;SDS011;2209;48.982;8.406;2022-07-23T03:38:21;7.40;;;6.77;;
4389;SDS011;2209;48.982;8.406;2022-07-23T03:40:43;7.97;;;6.93;;
4389;SDS011;2209;48.982;8.406;2022-07-23T03:43:05;6.60;;;5.90;;
4389;SDS011;2209;48.982;8.406;2022-07-23T03:45:27;6.83;;;6.27;;
4389;SDS011;2209;48.982;8.406;2022-07-23T03:47:49;6.67;;;6.17;;
4389;SDS011;2209;48.982;8.406;2022-07-23T03:50:12;6.90;;;6.20;;
4389;SDS011;2209;48.982;8.406;2022-07-23T03:52:35;8.60;;;7.27;;
4389;SDS011;2209;48.982;8.406;2022-07-23T03:54:57;8.87;;;8.03;;
4389;SDS011;2209;48.982;8.406;2022-07-23T03:57:19;8.00;;;7.20;;
4389;SDS011;2209;48.982;8.406;2022-07-23T03:59:42;7.03;;;6.43;;
4389;SDS011;2209;48.982;8.406;2022-07-23T04:02:04;6.83;;;6.33;;
4389;SDS011;2209;48.982;8.406;2022-07-23T04:04:26;7.00;;;6.40;;
4389;SDS011;2209;48.982;8.406;2022-07-23T04:06:48;7.20;;;6.50;;
4389;SDS011;2209;48.982;8.406;2022-07-23T04:09:11;7.23;;;6.53;;
4389;SDS011;2209;48.982;8.406;2022-07-23T04:11:33;5.50;;;5.10;;
4389;SDS011;2209;48.982;8.406;2022-07-23T04:13:56;6.70;;;6.20;;
4389;SDS011;2209;48.982;8.406;2022-07-23T04:16:18;6.00;;;5.50;;
4389;SDS011;2209;48.982;8.406;2022-07-23T04:18:40;6.20;;;5.70;;
4389;SDS011;2209;48.982;8.406;2022-07-23T04:21:02;6.33;;;5.83;;
4389;SDS011;2209;48.982;8.406;2022-07-23T04:23:24;6.97;;;6.37;;
4389;SDS011;2209;48.982;8.406;2022-07-23T04:25:48;19.10;;;6.93;;
4389;SDS011;2209;48.982;8.406;2022-07-23T04:28:10;7.83;;;5.97;;
4389;SDS011;2209;48.982;8.406;2022-07-23T04:30:32;6.60;;;6.10;;
4389;SDS011;2209;48.982;8.406;2022-07-23T04:32:55;7.40;;;6.70;;
4389;SDS011;2209;48.982;8.406;2022-07-23T04:35:17;8.50;;;6.10;;
4389;SDS011;2209;48.982;8.406;2022-07-23T04:37:39;5.50;;;5.10;;
4389;SDS011;2209;48.982;8.406;2022-07-23T04:40:01;6.83;;;6.17;;
4389;SDS011;2209;48.982;8.406;2022-07-23T04:42:25;6.90;;;6.30;;
4389;SDS011;2209;48.982;8.406;2022-07-23T04:44:47;6.17;;;5.60;;
4389;SDS011;2209;48.982;8.406;2022-07-23T04:47:09;5.87;;;5.47;;
4389;SDS011;2209;48.982;8.406;2022-07-23T04:49:32;5.90;;;5.40;;
4389;SDS011;2209;48.982;8.406;2022-07-23T04:51:54;8.50;;;6.00;;
4389;SDS011;2209;48.982;8.406;2022-07-23T04:54:16;6.60;;;6.07;;
4389;SDS011;2209;48.982;8.406;2022-07-23T04:56:38;6.80;;;6.17;;
4389;SDS011;2209;48.982;8.406;2022-07-23T04:59:02;6.80;;;6.20;;
4389;SDS011;2209;48.982;8.406;2022-07-23T05:01:24;7.50;;;6.60;;
4389;SDS011;2209;48.982;8.406;2022-07-23T05:03:46;5.90;;;5.30;;
4389;SDS011;2209;48.982;8.406;2022-07-23T05:06:09;6.67;;;6.00;;
4389;SDS011;2209;48.982;8.406;2022-07-23T05:08:31;6.70;;;6.07;;
4389;SDS011;2209;48.982;8.406;2022-07-23T05:10:53;6.13;;;5.63;;
4389;SDS011;2209;48.982;8.406;2022-07-23T05:13:16;7.27;;;6.10;;
4389;SDS011;2209;48.982;8.406;2022-07-23T05:15:40;6.50;;;5.97;;
4389;SDS011;2209;48.982;8.406;2022-07-23T05:18:02;7.20;;;6.60;;
4389;SDS011;2209;48.982;8.406;2022-07-23T05:20:24;6.80;;;6.20;;
4389;SDS011;2209;48.982;8.406;2022-07-23T05:22:47;9.10;;;6.33;;
4389;SDS011;2209;48.982;8.406;2022-07-23T05:25:09;8.17;;;6.43;;
4389;SDS011;2209;48.982;8.406;2022-07-23T05:27:31;6.90;;;6.20;;
4389;SDS011;2209;48.982;8.406;2022-07-23T05:29:54;6.23;;;5.73;;
4389;SDS011;2209;48.982;8.406;2022-07-23T05:32:17;6.00;;;5.50;;
4389;SDS011;2209;48.982;8.406;2022-07-23T05:34:40;9.40;;;6.37;;
4389;SDS011;2209;48.982;8.406;2022-07-23T05:37:02;6.63;;;5.93;;
4389;SDS011;2209;48.982;8.406;2022-07-23T05:39:24;7.40;;;6.70;;
4389;SDS011;2209;48.982;8.406;2022-07-23T05:41:46;7.53;;;6.63;;
4389;SDS011;2209;48.982;8.406;2022-07-23T05:44:08;7.53;;;6.70;;
4389;SDS011;2209;48.982;8.406;2022-07-23T05:46:31;6.20;;;5.60;;
4389;SDS011;2209;48.982;8.406;2022-07-23T05:48:54;6.53;;;5.93;;
4389;SDS011;2209;48.982;8.406;2022-07-23T05:51:19;7.30;;;6.17;;
4389;SDS011;2209;48.982;8.406;2022-07-23T05:53:41;8.33;;;6.37;;
4389;SDS011;2209;48.982;8.406;2022-07-23T05:56:04;6.93;;;6.33;;
4389;SDS011;2209;48.982;8.406;2022-07-23T05:58:26;8.10;;;7.27;;
4389;SDS011;2209;48.982;8.406;2022-07-23T06:00:48;7.50;;;6.80;;
4389;SDS011;2209;48.982;8.406;2022-07-23T06:03:10;6.60;;;6.10;;
4389;SDS011;2209;48.982;8.406;2022-07-23T06:05:34;6.50;;;6.00;;
4389;SDS011;2209;48.982;8.406;2022-07-23T06:07:56;7.37;;;6.67;;
4389;SDS011;2209;48.982;8.406;2022-07-23T06:10:19;12.33;;;7.60;;
4389;SDS011;2209;48.982;8.406;2022-07-23T06:12:41;7.33;;;6.70;;
4389;SDS011;2209;48.982;8.406;2022-07-23T06:15:04;9.97;;;6.40;;
4389;SDS011;2209;48.982;8.406;2022-07-23T06:17:27;6.33;;;5.83;;
4389;SDS011;2209;48.982;8.406;2022-07-23T06:19:50;7.40;;;6.80;;
4389;SDS011;2209;48.982;8.406;2022-07-23T06:22:13;8.77;;;6.57;;
4389;SDS011;2209;48.982;8.406;2022-07-23T06:24:35;11.67;;;7.40;;
4389;SDS011;2209;48.982;8.406;2022-07-23T06:26:58;14.30;;;7.53;;
4389;SDS011;2209;48.982;8.406;2022-07-23T06:29:20;10.67;;;8.00;;
4389;SDS011;2209;48.982;8.406;2022-07-23T06:31:42;7.03;;;6.33;;
4389;SDS011;2209;48.982;8.406;2022-07-23T06:34:04;8.60;;;6.73;;
4389;SDS011;2209;48.982;8.406;2022-07-23T06:36:27;10.40;;;7.10;;
4389;SDS011;2209;48.982;8.406;2022-07-23T06:38:50;7.63;;;6.93;;
4389;SDS011;2209;48.982;8.406;2022-07-23T06:41:12;9.20;;;6.70;;
4389;SDS011;2209;48.982;8.406;2022-07-23T06:43:35;10.27;;;8.30;;
4389;SDS011;2209;48.982;8.406;2022-07-23T06:45:57;8.17;;;7.57;;
4389;SDS011;2209;48.982;8.406;2022-07-23T06:48:19;8.90;;;8.00;;
4389;SDS011;2209;48.982;8.406;2022-07-23T06:50:42;9.83;;;8.10;;
4389;SDS011;2209;48.982;8.406;2022-07-23T06:53:04;8.43;;;7.73;;
4389;SDS011;2209;48.982;8.406;2022-07-23T06:55:28;7.73;;;7.03;;
4389;SDS011;2209;48.982;8.406;2022-07-23T06:57:51;7.73;;;6.97;;
4389;SDS011;2209;48.982;8.406;2022-07-23T07:00:13;7.83;;;7.13;;
4389;SDS011;2209;48.982;8.406;2022-07-23T07:02:36;9.33;;;7.47;;
4389;SDS011;2209;48.982;8.406;2022-07-23T07:04:58;7.40;;;6.70;;
4389;SDS011;2209;48.982;8.406;2022-07-23T07:07:20;8.07;;;7.37;;
4389;SDS011;2209;48.982;8.406;2022-07-23T07:09:42;9.03;;;7.10;;
4389;SDS011;2209;48.982;8.406;2022-07-23T07:12:06;8.10;;;7.30;;
4389;SDS011;2209;48.982;8.406;2022-07-23T07:14:29;7.57;;;6.87;;
4389;SDS011;2209;48.982;8.406;2022-07-23T07:16:51;10.10;;;8.27;;
4389;SDS011;2209;48.982;8.406;2022-07-23T07:19:13;8.63;;;7.20;;
4389;SDS011;2209;48.982;8.406;2022-07-23T07:21:36;7.73;;;6.90;;
4389;SDS011;2209;48.982;8.406;2022-07-23T07:23:58;8.67;;;7.37;;
4389;SDS011;2209;48.982;8.406;2022-07-23T07:26:20;9.37;;;8.30;;
4389;SDS011;2209;48.982;8.406;2022-07-23T07:28:43;7.93;;;6.80;;
4389;SDS011;2209;48.982;8.406;2022-07-23T07:31:06;7.40;;;6.80;;
4389;SDS011;2209;48.982;8.406;2022-07-23T07:33:28;8.17;;;7.37;;
4389;SDS011;2209;48.982;8.406;2022-07-23T07:35:50;8.80;;;7.90;;
4389;SDS011;2209;48.982;8.406;2022-07-23T07:38:12;8.27;;;7.47;;
4389;SDS011;2209;48.982;8.406;2022-07-23T07:40:34;7.80;;;7.20;;
4389;SDS011;2209;48.982;8.406;2022-07-23T07:42:57;8.27;;;7.57;;
4389;SDS011;2209;48.982;8.406;2022-07-23T07:45:21;10.33;;;8.20;;
4389;SDS011;2209;48.982;8.406;2022-07-23T07:47:43;7.63;;;6.93;;
4389;SDS011;2209;48.982;8.406;2022-07-23T07:50:05;8.57;;;7.87;;
4389;SDS011;2209;48.982;8.406;2022-07-23T07:52:29;9.60;;;6.70;;
4389;SDS011;2209;48.982;8.406;2022-07-23T07:54:51;10.60;;;8.10;;
4389;SDS011;2209;48.982;8.406;2022-07-23T07:57:13;8.10;;;7.33;;
4389;SDS011;2209;48.982;8.406;2022-07-23T07:59:35;8.20;;;7.57;;
4389;SDS011;2209;48.982;8.406;2022-07-23T08:01:59;7.57;;;6.87;;
4389;SDS011;2209;48.982;8.406;2022-07-23T08:04:21;11.33;;;8.67;;
4389;SDS011;2209;48.982;8.406;2022-07-23T08:06:43;8.23;;;7.43;;
4389;SDS011;2209;48.982;8.406;2022-07-23T08:09:13;9.77;;;7.53;;
4389;SDS011;2209;48.982;8.406;2022-07-23T08:11:35;8.93;;;7.43;;
4389;SDS011;2209;48.982;8.406;2022-07-23T08:13:58;8.90;;;8.00;;
4389;SDS011;2209;48.982;8.406;2022-07-23T08:16:20;8.60;;;7.90;;
4389;SDS011;2209;48.982;8.406;2022-07-23T08:18:43;9.57;;;8.53;;
4389;SDS011;2209;48.982;8.406;2022-07-23T08:21:06;8.43;;;7.73;;
4389;SDS011;2209;48.982;8.406;2022-07-23T08:23:28;8.63;;;7.83;;
4389;SDS011;2209;48.982;8.406;2022-07-23T08:25:51;9.40;;;8.60;;
4389;SDS011;2209;48.982;8.406;2022-07-23T08:28:13;10.13;;;9.07;;
4389;SDS011;2209;48.982;8.406;2022-07-23T08:30:37;24.60;;;8.20;;
4389;SDS011;2209;48.982;8.406;2022-07-23T08:33:00;8.57;;;7.87;;
4389;SDS011;2209;48.982;8.406;2022-07-23T08:35:26;8.17;;;7.37;;
4389;SDS011;2209;48.982;8.406;2022-07-23T08:37:49;12.57;;;9.20;;
4389;SDS011;2209;48.982;8.406;2022-07-23T08:40:12;10.03;;;9.00;;
4389;SDS011;2209;48.982;8.406;2022-07-23T08:42:34;9.80;;;8.70;;
4389;SDS011;2209;48.982;8.406;2022-07-23T08:44:57;10.10;;;9.03;;
4389;SDS011;2209;48.982;8.406;2022-07-23T08:47:19;8.90;;;8.20;;
4389;SDS011;2209;48.982;8.406;2022-07-23T08:49:41;10.07;;;9.17;;
4389;SDS011;2209;48.982;8.406;2022-07-23T08:52:07;10.33;;;9.43;;
4389;SDS011;2209;48.982;8.406;2022-07-23T08:54:29;9.83;;;8.87;;
4389;SDS011;2209;48.982;8.406;2022-07-23T08:56:51;9.33;;;8.53;;
4389;SDS011;2209;48.982;8.406;2022-07-23T08:59:14;10.23;;;8.67;;
4389;SDS011;2209;48.982;8.406;2022-07-23T09:01:36;9.47;;;8.67;;
4389;SDS011;2209;48.982;8.406;2022-07-23T09:03:58;8.63;;;7.93;;
4389;SDS011;2209;48.982;8.406;2022-07-23T09:06:20;7.27;;;6.67;;
4389;SDS011;2209;48.982;8.406;2022-07-23T09:08:44;8.63;;;7.83;;
4389;SDS011;2209;48.982;8.406;2022-07-23T09:11:08;8.60;;;7.90;;
4389;SDS011;2209;48.982;8.406;2022-07-23T09:13:32;8.33;;;7.63;;
4389;SDS011;2209;48.982;8.406;2022-07-23T09:15:57;8.03;;;7.40;;
4389;SDS011;2209;48.982;8.406;2022-07-23T09:18:27;8.77;;;7.97;;
4389;SDS011;2209;48.982;8.406;2022-07-23T09:21:04;8.27;;;7.47;;
4389;SDS011;2209;48.982;8.406;2022-07-23T09:23:36;9.17;;;8.47;;
4389;SDS011;2209;48.982;8.406;2022-07-23T09:26:01;9.37;;;8.47;;
4389;SDS011;2209;48.982;8.406;2022-07-23T09:28:28;9.07;;;8.27;;
4389;SDS011;2209;48.982;8.406;2022-07-23T09:30:51;9.53;;;8.57;;
4389;SDS011;2209;48.982;8.406;2022-07-23T09:33:13;8.70;;;8.00;;
4389;SDS011;2209;48.982;8.406;2022-07-23T09:35:43;9.17;;;8.27;;
4389;SDS011;2209;48.982;8.406;2022-07-23T09:38:09;8.80;;;8.00;;
4389;SDS011;2209;48.982;8.406;2022-07-23T09:40:31;9.03;;;8.13;;
4389;SDS011;2209;48.982;8.406;2022-07-23T09:42:55;8.73;;;7.90;;
4389;SDS011;2209;48.982;8.406;2022-07-23T09:45:18;8.37;;;7.47;;
4389;SDS011;2209;48.982;8.406;2022-07-23T09:47:40;8.87;;;7.80;;
4389;SDS011;2209;48.982;8.406;2022-07-23T09:50:03;8.73;;;7.93;;
4389;SDS011;2209;48.982;8.406;2022-07-23T09:52:29;8.73;;;7.93;;
4389;SDS011;2209;48.982;8.406;2022-07-23T09:54:52;8.70;;;8.00;;
4389;SDS011;2209;48.982;8.406;2022-07-23T09:57:20;19.10;;;8.17;;
4389;SDS011;2209;48.982;8.406;2022-07-23T09:59:44;9.50;;;8.70;;
4389;SDS011;2209;48.982;8.406;2022-07-23T10:02:08;8.20;;;7.50;;
4389;SDS011;2209;48.982;8.406;2022-07-23T10:04:32;9.70;;;8.80;;
4389;SDS011;2209;48.982;8.406;2022-07-23T10:06:56;8.33;;;7.63;;
4389;SDS011;2209;48.982;8.406;2022-07-23T10:09:21;9.70;;;8.87;;
4389;SDS011;2209;48.982;8.406;2022-07-23T10:11:45;8.53;;;7.57;;
4389;SDS011;2209;48.982;8.406;2022-07-23T10:14:09;9.40;;;8.57;;
4389;SDS011;2209;48.982;8.406;2022-07-23T10:16:32;9.20;;;8.30;;
4389;SDS011;2209;48.982;8.406;2022-07-23T10:18:55;10.20;;;9.30;;
4389;SDS011;2209;48.982;8.406;2022-07-23T10:21:18;10.23;;;8.57;;
4389;SDS011;2209;48.982;8.406;2022-07-23T10:23:47;9.87;;;9.07;;
4389;SDS011;2209;48.982;8.406;2022-07-23T10:26:22;9.23;;;8.43;;
4389;SDS011;2209;48.982;8.406;2022-07-23T10:28:56;10.17;;;9.17;;
4389;SDS011;2209;48.982;8.406;2022-07-23T10:31:30;8.97;;;8.07;;
4389;SDS011;2209;48.982;8.406;2022-07-23T10:34:12;8.77;;;7.97;;
4389;SDS011;2209;48.982;8.406;2022-07-23T10:36:42;11.73;;;7.53;;
4389;SDS011;2209;48.982;8.406;2022-07-23T10:39:11;10.73;;;9.53;;
4389;SDS011;2209;48.982;8.406;2022-07-23T10:41:39;8.53;;;7.90;;
4389;SDS011;2209;48.982;8.406;2022-07-23T10:44:05;8.20;;;7.40;;
4389;SDS011;2209;48.982;8.406;2022-07-23T10:46:29;10.07;;;9.17;;
4389;SDS011;2209;48.982;8.406;2022-07-23T10:54:40;8.77;;;8.07;;
4389;SDS011;2209;48.982;8.406;2022-07-23T10:57:06;9.77;;;8.23;;
4389;SDS011;2209;48.982;8.406;2022-07-23T10:59:30;8.70;;;7.90;;
4389;SDS011;2209;48.982;8.406;2022-07-23T11:01:52;9.13;;;8.33;;
4389;SDS011;2209;48.982;8.406;2022-07-23T11:04:14;8.83;;;8.13;;
4389;SDS011;2209;48.982;8.406;2022-07-23T11:09:38;8.87;;;7.87;;
4389;SDS011;2209;48.982;8.406;2022-07-23T11:14:58;7.80;;;7.20;;
4389;SDS011;2209;48.982;8.406;2022-07-23T11:17:21;8.63;;;7.83;;
4389;SDS011;2209;48.982;8.406;2022-07-23T11:22:47;8.73;;;8.03;;
4389;SDS011;2209;48.982;8.406;2022-07-23T11:25:12;8.13;;;7.47;;
4389;SDS011;2209;48.982;8.406;2022-07-23T11:27:50;8.97;;;8.20;;
4389;SDS011;2209;48.982;8.406;2022-07-23T11:33:15;9.97;;;9.07;;
4389;SDS011;2209;48.982;8.406;2022-07-23T11:35:39;9.67;;;8.70;;
4389;SDS011;2209;48.982;8.406;2022-07-23T11:38:04;12.10;;;8.27;;
4389;SDS011;2209;48.982;8.406;2022-07-23T11:40:28;9.23;;;8.43;;
4389;SDS011;2209;48.982;8.406;2022-07-23T11:42:51;9.10;;;8.10;;
4389;SDS011;2209;48.982;8.406;2022-07-23T11:45:15;8.50;;;7.70;;
4389;SDS011;2209;48.982;8.406;2022-07-23T11:47:37;9.37;;;8.60;;
4389;SDS011;2209;48.982;8.406;2022-07-23T11:50:00;8.50;;;7.70;;
4389;SDS011;2209;48.982;8.406;2022-07-23T11:52:25;10.07;;;9.27;;
4389;SDS011;2209;48.982;8.406;2022-07-23T11:54:51;9.23;;;8.33;;
4389;SDS011;2209;48.982;8.406;2022-07-23T11:57:15;10.23;;;9.37;;
4389;SDS011;2209;48.982;8.406;2022-07-23T11:59:37;8.80;;;8.10;;
4389;SDS011;2209;48.982;8.406;2022-07-23T12:02:01;9.23;;;8.33;;
4389;SDS011;2209;48.982;8.406;2022-07-23T12:04:28;9.30;;;8.40;;
4389;SDS011;2209;48.982;8.406;2022-07-23T12:06:59;9.07;;;8.27;;
4389;SDS011;2209;48.982;8.406;2022-07-23T12:09:21;9.07;;;8.27;;
4389;SDS011;2209;48.982;8.406;2022-07-23T12:11:57;9.57;;;8.67;;
4389;SDS011;2209;48.982;8.406;2022-07-23T12:14:20;9.57;;;8.03;;
4389;SDS011;2209;48.982;8.406;2022-07-23T12:16:42;9.30;;;8.30;;
4389;SDS011;2209;48.982;8.406;2022-07-23T12:19:04;12.13;;;8.37;;
4389;SDS011;2209;48.982;8.406;2022-07-23T12:21:26;9.50;;;8.60;;
4389;SDS011;2209;48.982;8.406;2022-07-23T12:23:49;8.90;;;8.00;;
4389;SDS011;2209;48.982;8.406;2022-07-23T12:26:11;9.80;;;9.00;;
4389;SDS011;2209;48.982;8.406;2022-07-23T12:28:35;9.87;;;8.87;;
4389;SDS011;2209;48.982;8.406;2022-07-23T12:30:58;11.23;;;8.80;;
4389;SDS011;2209;48.982;8.406;2022-07-23T12:33:21;10.07;;;9.17;;
4389;SDS011;2209;48.982;8.406;2022-07-23T12:35:45;8.93;;;7.87;;
4389;SDS011;2209;48.982;8.406;2022-07-23T12:38:09;8.50;;;7.70;;
4389;SDS011;2209;48.982;8.406;2022-07-23T12:40:33;8.60;;;7.90;;
4389;SDS011;2209;48.982;8.406;2022-07-23T12:42:57;9.07;;;8.27;;
4389;SDS011;2209;48.982;8.406;2022-07-23T12:45:22;9.70;;;8.70;;
4389;SDS011;2209;48.982;8.406;2022-07-23T12:47:59;8.80;;;8.10;;
4389;SDS011;2209;48.982;8.406;2022-07-23T12:50:39;8.70;;;8.00;;
4389;SDS011;2209;48.982;8.406;2022-07-23T12:53:04;8.37;;;7.57;;
4389;SDS011;2209;48.982;8.406;2022-07-23T12:55:28;9.33;;;8.53;;
4389;SDS011;2209;48.982;8.406;2022-07-23T12:57:50;10.30;;;9.50;;
4389;SDS011;2209;48.982;8.406;2022-07-23T13:00:13;9.47;;;8.63;;
4389;SDS011;2209;48.982;8.406;2022-07-23T13:02:45;9.90;;;8.33;;
4389;SDS011;2209;48.982;8.406;2022-07-23T13:05:07;11.40;;;9.23;;
4389;SDS011;2209;48.982;8.406;2022-07-23T13:07:30;9.43;;;8.53;;
4389;SDS011;2209;48.982;8.406;2022-07-23T13:09:52;12.57;;;9.10;;
4389;SDS011;2209;48.982;8.406;2022-07-23T13:12:14;10.33;;;9.30;;
4389;SDS011;2209;48.982;8.406;2022-07-23T13:14:36;10.93;;;9.20;;
4389;SDS011;2209;48.982;8.406;2022-07-23T13:16:58;9.40;;;8.77;;
4389;SDS011;2209;48.982;8.406;2022-07-23T13:19:22;10.10;;;9.20;;
4389;SDS011;2209;48.982;8.406;2022-07-23T13:21:45;9.83;;;9.03;;
4389;SDS011;2209;48.982;8.406;2022-07-23T13:24:08;9.60;;;8.80;;
4389;SDS011;2209;48.982;8.406;2022-07-23T13:26:31;8.67;;;7.97;;
4389;SDS011;2209;48.982;8.406;2022-07-23T13:28:53;10.93;;;9.83;;
4389;SDS011;2209;48.982;8.406;2022-07-23T13:31:15;10.30;;;9.20;;
4389;SDS011;2209;48.982;8.406;2022-07-23T13:33:38;9.80;;;9.00;;
4389;SDS011;2209;48.982;8.406;2022-07-23T13:36:02;9.53;;;8.73;;
4389;SDS011;2209;48.982;8.406;2022-07-23T13:38:25;10.03;;;9.03;;
4389;SDS011;2209;48.982;8.406;2022-07-23T13:40:49;8.40;;;7.73;;
4389;SDS011;2209;48.982;8.406;2022-07-23T13:43:13;9.87;;;8.87;;
4389;SDS011;2209;48.982;8.406;2022-07-23T13:45:36;9.60;;;8.70;;
4389;SDS011;2209;48.982;8.406;2022-07-23T13:47:59;10.23;;;9.23;;
4389;SDS011;2209;48.982;8.406;2022-07-23T13:50:21;10.47;;;8.70;;
4389;SDS011;2209;48.982;8.406;2022-07-23T13:52:45;10.07;;;9.17;;
4389;SDS011;2209;48.982;8.406;2022-07-23T13:55:07;9.00;;;8.20;;
4389;SDS011;2209;48.982;8.406;2022-07-23T13:57:30;9.70;;;8.80;;
4389;SDS011;2209;48.982;8.406;2022-07-23T13:59:53;9.53;;;8.67;;
4389;SDS011;2209;48.982;8.406;2022-07-23T14:02:16;9.50;;;8.60;;
4389;SDS011;2209;48.982;8.406;2022-07-23T14:04:39;9.00;;;8.20;;
4389;SDS011;2209;48.982;8.406;2022-07-23T14:07:01;9.43;;;8.63;;
4389;SDS011;2209;48.982;8.406;2022-07-23T14:09:24;7.37;;;6.77;;
4389;SDS011;2209;48.982;8.406;2022-07-23T14:11:47;8.63;;;7.83;;
4389;SDS011;2209;48.982;8.406;2022-07-23T14:14:11;9.00;;;8.10;;
4389;SDS011;2209;48.982;8.406;2022-07-23T14:16:33;8.90;;;8.20;;
4389;SDS011;2209;48.982;8.406;2022-07-23T14:18:55;12.13;;;8.77;;
4389;SDS011;2209;48.982;8.406;2022-07-23T14:21:17;8.27;;;7.63;;
4389;SDS011;2209;48.982;8.406;2022-07-23T14:23:40;9.37;;;8.50;;
4389;SDS011;2209;48.982;8.406;2022-07-23T14:26:03;10.10;;;9.20;;
4389;SDS011;2209;48.982;8.406;2022-07-23T14:28:26;9.10;;;8.30;;
4389;SDS011;2209;48.982;8.406;2022-07-23T14:30:48;9.33;;;8.53;;
4389;SDS011;2209;48.982;8.406;2022-07-23T14:33:10;8.47;;;7.77;;
4389;SDS011;2209;48.982;8.406;2022-07-23T14:35:32;8.97;;;8.00;;
4389;SDS011;2209;48.982;8.406;2022-07-23T14:37:55;11.17;;;9.43;;
4389;SDS011;2209;48.982;8.406;2022-07-23T14:40:17;8.80;;;8.10;;
4389;SDS011;2209;48.982;8.406;2022-07-23T14:42:41;9.43;;;8.53;;
4389;SDS011;2209;48.982;8.406;2022-07-23T14:45:03;9.53;;;8.63;;
4389;SDS011;2209;48.982;8.406;2022-07-23T14:47:27;9.80;;;8.80;;
4389;SDS011;2209;48.982;8.406;2022-07-23T14:49:49;9.57;;;8.77;;
4389;SDS011;2209;48.982;8.406;2022-07-23T14:52:11;9.43;;;8.63;;
4389;SDS011;2209;48.982;8.406;2022-07-23T14:54:33;9.00;;;8.30;;
4389;SDS011;2209;48.982;8.406;2022-07-23T14:56:56;9.43;;;8.50;;
4389;SDS011;2209;48.982;8.406;2022-07-23T14:59:20;9.00;;;8.17;;
4389;SDS011;2209;48.982;8.406;2022-07-23T15:01:43;9.67;;;8.67;;
4389;SDS011;2209;48.982;8.406;2022-07-23T15:04:05;8.80;;;8.10;;
4389;SDS011;2209;48.982;8.406;2022-07-23T15:06:28;11.53;;;8.40;;